Flight Track Log - Related Links

Times and Time Zones

All times are in EDT time to prevent confusion due to time zone crossing. See the ASQ5678 flight status page for this flight to view local times or setup timezone preferences in your user account.


Time Position Orientation Groundspeed Altitude Reporting Facility
EDT Latitude Longitude Course Direction KTS MPH feet Rate Location/Type
Tue 06:56:56 PM 40.7167 -74.1333 270° West 171 197 1,700  Level New York TRACON
Tue 06:57:56 PM 40.7667 -74.1167 14° North 233 268 2,900 1,900 Climbing New York TRACON
Tue 06:58:56 PM 40.7833 -74.1833 288° West 246 283 5,500 2,250 Climbing New York TRACON
Tue 06:59:00 PM 40.6833 -74.5266 270° West  Level FlightAware Approximate
Tue 06:59:56 PM 40.7667 -74.2833 258° West 257 296 7,400  Level New York TRACON
Tue 07:00:00 PM 40.6834 -74.6465 270° West  Level FlightAware Approximate
Tue 07:00:56 PM 40.7667 -74.3667 270° West 269 310 9,100  Level New York TRACON
Tue 07:01:00 PM 40.6834 -74.7665 270° West  Level FlightAware Approximate
Tue 07:01:56 PM 40.7500 -74.4667 258° West 271 312 11,100  Level New York TRACON
Tue 07:02:00 PM 40.6834 -74.8865 270° West  Level FlightAware Approximate
Tue 07:04:03 PM 40.7275 -74.7006 263° West 318 366 13,300  Level New York Center
Tue 07:05:01 PM 40.7156 -74.8094 262° West 331 381 14,200 966 Climbing New York Center
Tue 07:06:01 PM 40.7008 -74.9317 261° West 336 387 15,200 1,091 Climbing New York Center
Tue 07:07:02 PM 40.6833 -75.0675 260° West 336 387 16,400 1,140 Climbing New York Center
Tue 07:08:02 PM 40.6375 -75.1794 242° Southwest 341 392 17,500 1,190 Climbing New York Center
Tue 07:09:03 PM 40.5944 -75.2725 239° Southwest 341 392 18,800 1,240 Climbing New York Center
Tue 07:10:03 PM 40.5464 -75.3839 240° Southwest 341 392 20,000 1,179 Climbing New York Center
Tue 07:11:00 PM 40.4964 -75.4897 238° Southwest 336 387 21,100 1,059 Climbing New York Center
Tue 07:12:02 PM 40.4553 -75.5825 240° Southwest 330 380 22,100 885 Climbing New York Center
Tue 07:13:02 PM 40.4050 -75.6853 237° Southwest 330 380 22,900 744 Climbing New York Center
Tue 07:14:03 PM 40.3569 -75.7908 239° Southwest 330 380 23,600 793 Climbing New York Center
Tue 07:15:03 PM 40.2972 -75.9144 238° Southwest 341 392 24,500 872 Climbing New York Center
Tue 07:16:00 PM 40.2447 -76.0219 237° Southwest 353 406 25,300 850 Climbing New York Center
Tue 07:17:03 PM 40.1958 -76.1325 240° Southwest 353 406 26,200 878 Climbing New York Center
Tue 07:18:03 PM 40.1519 -76.2294 239° Southwest 353 406 27,100 814 Climbing New York Center
Tue 07:19:01 PM 40.0989 -76.3367 237° Southwest 353 406 27,800 807 Climbing New York Center
Tue 07:20:02 PM 40.0478 -76.4464 239° Southwest 353 406 28,700 942 Climbing New York Center
Tue 07:21:02 PM 39.9989 -76.5508 239° Southwest 353 406 29,700 1,059 Climbing New York Center
Tue 07:22:01 PM 39.9500 -76.6581 239° Southwest 353 406 30,800 1,109 Climbing New York Center
Tue 07:23:01 PM 39.9008 -76.7622 238° Southwest 342 394 31,900 950 Climbing New York Center
Tue 07:25:23 PM 39.7844 -77.0036 238° Southwest 336 387 34,000 624 Climbing Washington Center
Tue 07:26:23 PM 39.7353 -77.1106 239° Southwest 341 392 34,000  Level Washington Center
Tue 07:27:23 PM 39.6817 -77.2256 239° Southwest 360 414 34,000  Level Washington Center
Tue 07:28:24 PM 39.6258 -77.3428 238° Southwest 373 429 34,000  Level Washington Center
Tue 07:29:25 PM 39.5722 -77.4572 239° Southwest 379 436 34,000  Level Washington Center
Tue 07:30:23 PM 39.5183 -77.5714 239° Southwest 379 436 34,000  Level Washington Center
Tue 07:31:25 PM 39.4642 -77.6828 238° Southwest 379 436 34,000  Level Washington Center
Tue 07:32:23 PM 39.4122 -77.7942 239° Southwest 379 436 34,000  Level Washington Center
Tue 07:33:24 PM 39.3622 -77.9081 240° Southwest 379 436 34,000  Level Washington Center
Tue 07:34:23 PM 39.3139 -78.0272 242° Southwest 373 429 34,000  Level Washington Center
Tue 07:35:24 PM 39.2678 -78.1439 243° Southwest 373 429 34,000  Level Washington Center
Tue 07:36:24 PM 39.2214 -78.2628 243° Southwest 373 429 34,000  Level Washington Center
Tue 07:37:25 PM 39.1750 -78.3789 243° Southwest 368 423 34,000  Level Washington Center
Tue 07:38:25 PM 39.1286 -78.4947 243° Southwest 363 418 34,000  Level Washington Center
Tue 07:39:25 PM 39.0819 -78.6081 242° Southwest 363 418 34,000  Level Washington Center
Tue 07:40:25 PM 39.0353 -78.7261 243° Southwest 363 418 34,000  Level Washington Center
Tue 07:41:25 PM 38.9817 -78.8547 242° Southwest 363 418 34,000  Level Washington Center
Tue 07:42:24 PM 38.9347 -78.9728 243° Southwest 368 423 34,000  Level Washington Center
Tue 07:43:25 PM 38.8853 -79.0933 242° Southwest 368 423 34,000  Level Washington Center
Tue 07:44:26 PM 38.8689 -79.2231 261° West 373 429 34,000  Level Washington Center
Tue 07:45:23 PM 38.8547 -79.3503 262° West 373 429 34,000  Level Washington Center
Tue 07:46:24 PM 38.8422 -79.4803 263° West 373 429 34,000  Level Washington Center
Tue 07:47:25 PM 38.8294 -79.6156 263° West 368 423 34,000  Level Washington Center
Tue 07:48:23 PM 38.8169 -79.7347 262° West 373 429 34,000  Level Washington Center
Tue 07:49:24 PM 38.8042 -79.8647 263° West 373 429 34,000  Level Washington Center
Tue 07:50:24 PM 38.7878 -79.9864 260° West 366 421 34,000  Level Indianapolis Center
Tue 07:51:26 PM 38.7733 -80.1142 262° West 364 419 34,000  Level Indianapolis Center
Tue 07:52:28 PM 38.7572 -80.2669 262° West 361 415 34,000  Level Indianapolis Center
Tue 07:53:30 PM 38.7428 -80.3925 262° West 358 412 34,000  Level Indianapolis Center
Tue 07:54:31 PM 38.7311 -80.5172 263° West 353 406 34,000  Level Indianapolis Center
Tue 07:55:33 PM 38.7164 -80.6408 261° West 353 406 34,000  Level Indianapolis Center
Tue 07:56:35 PM 38.7025 -80.7647 262° West 351 404 34,000 -435 Level Indianapolis Center
Tue 07:57:37 PM 38.6881 -80.8886 262° West 352 405 33,100 -976 Descending Indianapolis Center
Tue 07:58:38 PM 38.6739 -81.0192 262° West 367 422 32,000 -732 Descending Indianapolis Center
Tue 07:59:40 PM 38.6583 -81.1522 262° West 375 432 31,600 -774 Descending Indianapolis Center
Tue 08:00:42 PM 38.6608 -81.3119 271° West 382 440 30,400 -774 Descending Indianapolis Center
Tue 08:01:44 PM 38.7378 -81.4108 315° West 413 475 30,000 -194 Descending Indianapolis Center
Tue 08:02:46 PM 38.7894 -81.5361 298° West 390 449 30,000  Level Indianapolis Center
Tue 08:03:47 PM 38.8231 -81.6458 291° West 378 435 30,000  Level Indianapolis Center
Tue 08:04:49 PM 38.8658 -81.7942 290° West 374 430 30,000  Level Indianapolis Center
Tue 08:05:51 PM 38.9011 -81.9203 290° West 377 434 30,000  Level Indianapolis Center
Tue 08:06:53 PM 38.9378 -82.0486 290° West 383 441 30,000  Level Indianapolis Center
Tue 08:07:54 PM 38.9753 -82.1781 290° West 385 443 30,000  Level Indianapolis Center
Tue 08:08:56 PM 39.0117 -82.3075 290° West 386 444 30,000 -145 Level Indianapolis Center
Tue 08:09:58 PM 39.0492 -82.4400 290° West 393 452 29,700 -726 Descending Indianapolis Center
Tue 08:11:00 PM 39.0861 -82.5747 289° West 398 458 28,500 -1,317 Descending Indianapolis Center
Tue 08:12:01 PM 39.1347 -82.7447 290° West 420 483 27,000 -1,415 Descending Indianapolis Center
Tue 08:13:03 PM 39.1725 -82.8842 289° West 415 478 25,600 -1,403 Descending Indianapolis Center
Tue 08:14:05 PM 39.2061 -83.0056 290° West 373 429 24,100 -1,500 Descending Indianapolis Center
Tue 08:15:07 PM 39.2417 -83.1308 290° West 369 425 22,500 -1,016 Descending Indianapolis Center
Tue 08:16:09 PM 39.2758 -83.2589 289° West 373 429 22,000 -439 Descending Indianapolis Center
Tue 08:17:10 PM 39.3119 -83.3908 290° West 383 441 21,600 -1,268 Descending Indianapolis Center
Tue 08:18:12 PM 39.3475 -83.5222 289° West 381 438 19,400 -2,129 Descending Indianapolis Center
Tue 08:19:14 PM 39.3800 -83.6403 290° West 349 402 17,200 -1,694 Descending Indianapolis Center
Tue 08:20:16 PM 39.4169 -83.7778 289° West 344 396 15,900 -1,645 Descending Indianapolis Center
Tue 08:21:18 PM 39.4475 -83.8939 289° West 336 387 13,800 -2,146 Descending Indianapolis Center
Tue 08:22:19 PM 39.4750 -84.0119 287° West 337 388 11,500 -1,463 Descending Indianapolis Center
Tue 08:23:21 PM 39.4378 -84.1250 247° West 342 394 10,800 -774 Descending Indianapolis Center
Tue 08:24:23 PM 39.4036 -84.2297 247° West 317 365 9,900 -927 Descending Indianapolis Center
Tue 08:25:24 PM 39.3733 -84.3217 247° West 281 323 8,900 -1,024 Descending Indianapolis Center
Tue 08:26:26 PM 39.3422 -84.4142 247° West 279 321 7,800 -1,306 Descending Indianapolis Center
Tue 08:27:28 PM 39.3147 -84.5017 248° West 267 307 6,200 -1,597 Descending Indianapolis Center
Tue 08:28:30 PM 39.2869 -84.5897 248° West 262 302 4,500 -1,122 Descending Indianapolis Center
Tue 08:29:31 PM 39.2553 -84.6886 248° West 263 303 3,900 -916 Descending Indianapolis Center
Tue 08:31:53 PM 39.1000 -84.6667 174° South 140 161 1,400 -1,056 Descending Cincinnati TRACON
Tue 08:33:00 PM 39.0488 -84.6678 173° South  Level Estimated
Tue 08:40:00 PM 39.0488 -84.6678 339° North  Level Estimated

Login

Don't have an account? Register now (free) for customized features, flight alerts, and more!